Time;durP1;ratioP1;P1;durP2;ratioP2;P2;SDS_P1;SDS_P2;PMS_P1;PMS_P2;Temp;Humidity;BMP_temperature;BMP_pressure;BME280_temperature;BME280_humidity;BME280_pressure;Samples;Min_cycle;Max_cycle;Signal;HPM_P1;HPM_P2
2021/12/15 00:00:01;;;;;;;0.30;0.10;;;3.50;99.90;;;;;;5066573;28;20941;-84
2021/12/15 00:02:30;;;;;;;0.30;0.10;;;3.60;99.90;;;;;;5069346;28;20489;-85
2021/12/15 00:04:57;;;;;;;0.30;0.10;;;3.50;99.90;;;;;;5071630;28;20483;-84
2021/12/15 00:07:28;;;;;;;0.40;0.20;;;3.50;99.90;;;;;;5071541;28;20500;-83
2021/12/15 00:09:56;;;;;;;0.30;0.20;;;3.60;99.90;;;;;;5066838;28;20521;-84
2021/12/15 00:12:23;;;;;;;0.30;0.20;;;3.50;99.90;;;;;;5072163;28;20439;-84
2021/12/15 00:14:51;;;;;;;0.30;0.10;;;3.60;99.90;;;;;;5067095;28;20532;-84
2021/12/15 00:17:18;;;;;;;0.60;0.43;;;3.50;99.90;;;;;;5061954;28;20523;-85
2021/12/15 00:19:47;;;;;;;0.30;0.10;;;3.50;99.90;;;;;;5071765;28;20440;-84
2021/12/15 00:22:14;;;;;;;0.30;0.10;;;3.50;99.90;;;;;;5071143;28;20487;-85
2021/12/15 00:24:41;;;;;;;0.30;0.10;;;3.50;99.90;;;;;;5071442;28;20537;-84
2021/12/15 00:27:08;;;;;;;0.30;0.10;;;3.50;99.90;;;;;;5087440;28;20439;-84
2021/12/15 00:29:36;;;;;;;1.27;0.57;;;3.50;99.90;;;;;;5073564;28;20444;-84
2021/12/15 00:32:04;;;;;;;0.30;0.10;;;3.50;99.90;;;;;;5069147;28;20463;-84
2021/12/15 00:34:34;;;;;;;0.30;0.10;;;3.50;99.90;;;;;;5061109;28;20444;-84
2021/12/15 00:37:02;;;;;;;0.30;0.10;;;3.50;99.90;;;;;;5070066;28;20468;-84
2021/12/15 00:39:29;;;;;;;0.30;0.10;;;3.40;99.90;;;;;;5071736;28;20436;-84
2021/12/15 00:41:58;;;;;;;0.30;0.13;;;3.50;99.90;;;;;;5070829;28;20794;-84
2021/12/15 00:44:25;;;;;;;0.30;0.10;;;3.50;99.90;;;;;;5070272;28;20459;-85
2021/12/15 00:46:52;;;;;;;0.30;0.10;;;3.50;99.90;;;;;;5061882;28;20501;-84
2021/12/15 00:49:21;;;;;;;0.30;0.10;;;3.40;99.90;;;;;;5052513;28;20201;-84
2021/12/15 00:51:48;;;;;;;0.30;0.10;;;3.40;99.90;;;;;;5071338;28;20444;-85
2021/12/15 00:54:17;;;;;;;0.30;0.10;;;3.40;99.90;;;;;;5070687;28;20468;-84
2021/12/15 00:56:44;;;;;;;0.33;0.17;;;3.40;99.90;;;;;;5070517;28;20540;-84
2021/12/15 00:59:12;;;;;;;0.30;0.10;;;3.40;99.90;;;;;;5070550;28;20502;-86
2021/12/15 01:01:40;;;;;;;0.30;0.20;;;3.40;99.90;;;;;;5071271;28;20471;-84
2021/12/15 01:04:10;;;;;;;0.30;0.10;;;3.40;99.90;;;;;;5070287;28;20197;-85
2021/12/15 01:06:38;;;;;;;1.23;0.40;;;3.40;99.90;;;;;;5069770;28;20482;-85
2021/12/15 01:09:09;;;;;;;0.30;0.10;;;3.40;99.90;;;;;;5071538;28;20443;-84
2021/12/15 01:12:06;;;;;;;0.30;0.20;;;3.40;99.90;;;;;;5070589;28;20692;-84
2021/12/15 01:19:47;;;;;;;0.30;0.17;;;3.40;99.90;;;;;;5069953;28;20463;-84
2021/12/15 01:20:14;;;;;;;0.30;0.10;;;3.40;99.90;;;;;;5070165;28;20439;-84
2021/12/15 01:22:44;;;;;;;0.40;0.30;;;3.40;99.90;;;;;;5080254;28;20452;-84
2021/12/15 01:25:17;;;;;;;0.30;0.10;;;3.40;99.90;;;;;;5082945;28;21404;-85
2021/12/15 01:27:46;;;;;;;0.30;0.10;;;3.40;99.90;;;;;;5069658;28;20448;-84
2021/12/15 01:30:16;;;;;;;0.30;0.10;;;3.40;99.90;;;;;;5055128;28;20475;-84
2021/12/15 01:32:44;;;;;;;1.17;0.30;;;3.40;99.90;;;;;;5055555;28;20444;-84
2021/12/15 01:35:11;;;;;;;0.30;0.10;;;3.40;99.90;;;;;;5071011;28;20516;-84
2021/12/15 01:37:39;;;;;;;0.30;0.10;;;3.40;99.90;;;;;;5069600;28;20560;-84
2021/12/15 01:40:13;;;;;;;0.30;0.10;;;3.40;99.90;;;;;;5052752;28;20267;-84
2021/12/15 01:42:40;;;;;;;0.30;0.20;;;3.40;99.90;;;;;;5050480;28;20447;-84
2021/12/15 01:48:01;;;;;;;0.30;0.10;;;3.40;99.90;;;;;;5068402;28;20434;-84
2021/12/15 01:50:28;;;;;;;0.30;0.10;;;3.40;99.90;;;;;;5069594;28;20462;-86
2021/12/15 01:52:55;;;;;;;0.30;0.10;;;3.40;99.90;;;;;;5070085;28;20443;-85
2021/12/15 01:55:24;;;;;;;0.30;0.10;;;3.40;99.90;;;;;;5069962;28;20512;-85
2021/12/15 01:57:51;;;;;;;0.30;0.10;;;3.40;99.90;;;;;;5067006;28;20516;-86
2021/12/15 02:00:25;;;;;;;0.90;0.90;;;3.40;99.90;;;;;;5069913;28;20493;-84
2021/12/15 02:02:52;;;;;;;0.30;0.10;;;3.40;99.90;;;;;;5067285;28;20277;-84
2021/12/15 02:05:20;;;;;;;0.30;0.10;;;3.40;99.90;;;;;;5069814;28;20509;-84
2021/12/15 02:07:48;;;;;;;0.30;0.10;;;3.40;99.90;;;;;;5068747;28;20932;-84
2021/12/15 02:10:15;;;;;;;0.97;0.97;;;3.40;99.90;;;;;;5069875;28;20446;-84
2021/12/15 02:12:44;;;;;;;0.30;0.10;;;3.40;99.90;;;;;;5067223;28;20489;-85
2021/12/15 02:15:15;;;;;;;0.30;0.10;;;3.40;99.90;;;;;;5069779;28;20450;-84
2021/12/15 02:17:43;;;;;;;0.30;0.10;;;3.40;99.90;;;;;;5068969;28;20557;-85
2021/12/15 02:20:13;;;;;;;0.30;0.10;;;3.40;99.90;;;;;;5076426;28;20637;-84
2021/12/15 02:22:43;;;;;;;0.30;0.10;;;3.40;99.90;;;;;;5073889;28;20440;-85
2021/12/15 02:25:12;;;;;;;0.30;0.10;;;3.40;99.90;;;;;;5070038;28;20486;-85
2021/12/15 02:27:40;;;;;;;0.93;0.50;;;3.40;99.90;;;;;;5060990;28;20926;-83
2021/12/15 02:30:22;;;;;;;0.30;0.10;;;3.40;99.90;;;;;;5070150;28;20471;-84
2021/12/15 02:33:03;;;;;;;0.30;0.10;;;3.40;99.90;;;;;;5068864;28;20515;-84
2021/12/15 02:38:17;;;;;;;0.30;0.10;;;3.40;99.90;;;;;;5068911;28;20449;-83
2021/12/15 02:40:45;;;;;;;0.30;0.10;;;3.40;99.90;;;;;;5068844;28;20765;-84
2021/12/15 02:43:13;;;;;;;0.30;0.10;;;3.30;99.90;;;;;;5069672;28;20444;-84
2021/12/15 02:45:40;;;;;;;0.30;0.10;;;3.30;99.90;;;;;;5068681;28;20472;-84
2021/12/15 02:48:07;;;;;;;0.30;0.10;;;3.40;99.90;;;;;;5069498;28;20443;-84
2021/12/15 02:50:37;;;;;;;0.30;0.10;;;3.40;99.90;;;;;;5069187;28;20436;-84
2021/12/15 02:53:04;;;;;;;0.30;0.10;;;3.40;99.90;;;;;;5068343;28;20464;-85
2021/12/15 02:55:33;;;;;;;0.30;0.20;;;3.40;99.90;;;;;;5069127;28;20444;-85
2021/12/15 02:58:00;;;;;;;0.30;0.10;;;3.40;99.90;;;;;;5069516;28;20447;-84
2021/12/15 03:00:35;;;;;;;0.30;0.20;;;3.40;99.90;;;;;;5068466;28;20468;-84
2021/12/15 03:03:42;;;;;;;0.30;0.10;;;3.40;99.90;;;;;;5067971;28;20872;-84
2021/12/15 03:06:11;;;;;;;0.30;0.10;;;3.40;99.90;;;;;;5068908;28;20470;-85
2021/12/15 03:08:53;;;;;;;0.30;0.10;;;3.40;99.90;;;;;;5070658;28;20448;-85
2021/12/15 03:16:55;;;;;;;0.30;0.10;;;3.40;99.90;;;;;;5083239;28;20431;-83
2021/12/15 03:19:22;;;;;;;0.30;0.20;;;3.50;99.90;;;;;;5080490;28;20836;-84
2021/12/15 03:21:50;;;;;;;0.30;0.10;;;3.50;99.90;;;;;;5065700;28;21125;-86
2021/12/15 03:24:20;;;;;;;0.30;0.10;;;3.40;99.90;;;;;;5060149;28;20501;-84
2021/12/15 03:26:56;;;;;;;0.73;0.73;;;3.40;99.90;;;;;;5063992;28;20484;-86
2021/12/15 03:35:21;;;;;;;0.40;0.40;;;3.50;99.90;;;;;;5036031;28;20479;-84
2021/12/15 03:37:51;;;;;;;0.30;0.10;;;3.50;99.90;;;;;;5035260;28;20445;-85
2021/12/15 03:40:22;;;;;;;0.30;0.10;;;3.50;99.90;;;;;;5057089;28;20537;-84
2021/12/15 03:42:54;;;;;;;0.50;0.50;;;3.50;99.90;;;;;;5072839;28;20991;-84
2021/12/15 03:45:25;;;;;;;0.30;0.10;;;3.50;99.90;;;;;;5071979;28;20537;-84
2021/12/15 03:47:53;;;;;;;0.30;0.10;;;3.40;99.90;;;;;;5072138;28;20544;-85
2021/12/15 03:50:21;;;;;;;0.35;0.25;;;3.50;99.90;;;;;;5072680;28;20526;-85
2021/12/15 03:52:49;;;;;;;0.30;0.10;;;3.40;99.90;;;;;;5071285;28;20194;-86
2021/12/15 03:55:17;;;;;;;0.30;0.10;;;3.40;99.90;;;;;;5072674;28;20447;-84
2021/12/15 03:57:45;;;;;;;0.30;0.20;;;3.40;99.90;;;;;;5071649;28;21008;-84
2021/12/15 04:00:17;;;;;;;0.30;0.13;;;3.40;99.90;;;;;;5072194;28;20444;-84
2021/12/15 04:02:45;;;;;;;0.30;0.10;;;3.40;99.90;;;;;;5070984;28;21196;-85
2021/12/15 04:05:15;;;;;;;0.30;0.10;;;3.40;99.90;;;;;;5071957;28;20463;-84
2021/12/15 04:07:42;;;;;;;0.57;0.57;;;3.40;99.90;;;;;;5072376;28;20443;-85
2021/12/15 04:10:14;;;;;;;0.40;0.40;;;3.40;99.90;;;;;;5070692;28;20533;-85
2021/12/15 04:12:42;;;;;;;0.30;0.10;;;3.40;99.90;;;;;;5072929;28;20501;-83
2021/12/15 04:15:25;;;;;;;0.30;0.10;;;3.40;99.90;;;;;;5084734;28;20192;-86
2021/12/15 04:17:55;;;;;;;0.30;0.20;;;3.40;99.90;;;;;;5072707;28;20201;-83
2021/12/15 04:20:25;;;;;;;0.40;0.28;;;3.40;99.90;;;;;;5071237;28;20208;-85
2021/12/15 04:22:53;;;;;;;0.30;0.10;;;3.40;99.90;;;;;;5063049;28;20239;-85
2021/12/15 04:25:23;;;;;;;0.30;0.10;;;3.40;99.90;;;;;;5059501;28;20544;-85
2021/12/15 04:27:57;;;;;;;0.30;0.10;;;3.30;99.90;;;;;;5071664;28;20450;-84
2021/12/15 04:30:26;;;;;;;0.30;0.10;;;3.40;99.90;;;;;;5071975;28;20532;-85
2021/12/15 04:32:57;;;;;;;0.80;0.80;;;3.40;99.90;;;;;;5070632;28;20447;-84
2021/12/15 04:35:24;;;;;;;0.30;0.10;;;3.40;99.90;;;;;;5070999;28;20513;-85
2021/12/15 04:37:52;;;;;;;0.30;0.10;;;3.40;99.90;;;;;;5071710;28;20496;-84
2021/12/15 04:40:21;;;;;;;0.30;0.10;;;3.30;99.90;;;;;;5071277;28;20520;-85
2021/12/15 04:42:49;;;;;;;0.30;0.10;;;3.30;99.90;;;;;;5070330;28;20467;-84
2021/12/15 04:45:19;;;;;;;0.30;0.30;;;3.40;99.90;;;;;;5071978;28;20193;-85
2021/12/15 04:47:50;;;;;;;0.30;0.10;;;3.40;99.90;;;;;;5070090;28;20515;-85
2021/12/15 04:50:21;;;;;;;0.30;0.10;;;3.30;99.90;;;;;;5070967;28;20471;-84
2021/12/15 04:52:49;;;;;;;0.30;0.20;;;3.40;99.90;;;;;;5067491;28;20495;-84
2021/12/15 04:55:16;;;;;;;0.30;0.10;;;3.40;99.90;;;;;;5070238;28;20502;-86
2021/12/15 04:57:43;;;;;;;0.30;0.10;;;3.50;99.90;;;;;;5067323;28;21138;-84
2021/12/15 05:00:16;;;;;;;0.53;0.30;;;3.40;99.90;;;;;;5070091;28;20933;-86
2021/12/15 05:02:43;;;;;;;5.23;1.03;;;3.40;99.90;;;;;;5067524;28;20498;-84
2021/12/15 05:05:10;;;;;;;0.50;0.47;;;3.40;99.90;;;;;;5069512;28;20456;-86
2021/12/15 05:07:39;;;;;;;0.30;0.20;;;3.40;99.90;;;;;;5070388;28;20641;-83
2021/12/15 05:10:09;;;;;;;0.30;0.20;;;3.30;99.90;;;;;;5077474;28;20509;-85
2021/12/15 05:12:36;;;;;;;0.30;0.10;;;3.40;99.90;;;;;;5074419;28;20444;-85
2021/12/15 05:15:05;;;;;;;0.30;0.10;;;3.40;99.90;;;;;;5071863;28;20464;-85
2021/12/15 05:17:32;;;;;;;0.30;0.20;;;3.30;99.90;;;;;;5063236;28;20542;-84
2021/12/15 05:20:03;;;;;;;0.30;0.10;;;3.40;99.90;;;;;;5069201;28;20472;-84
2021/12/15 05:22:30;;;;;;;0.30;0.20;;;3.40;99.90;;;;;;5068165;28;20467;-84
2021/12/15 05:24:58;;;;;;;0.30;0.10;;;3.30;99.90;;;;;;5069187;28;20464;-86
2021/12/15 05:27:25;;;;;;;0.30;0.20;;;3.40;99.90;;;;;;5070071;28;20515;-84
2021/12/15 05:29:53;;;;;;;0.30;0.17;;;3.40;99.90;;;;;;5070526;28;20463;-85
2021/12/15 05:32:22;;;;;;;0.30;0.10;;;3.40;99.90;;;;;;5068077;28;20456;-84
2021/12/15 05:34:51;;;;;;;0.30;0.10;;;3.40;99.90;;;;;;5068285;28;20483;-84
2021/12/15 05:37:22;;;;;;;0.30;0.10;;;3.40;99.90;;;;;;5069376;28;20459;-84
2021/12/15 05:39:51;;;;;;;0.30;0.10;;;3.30;99.90;;;;;;5056115;28;20441;-83
2021/12/15 05:42:22;;;;;;;0.30;0.10;;;3.40;99.90;;;;;;5050305;28;20922;-84
2021/12/15 05:44:50;;;;;;;0.30;0.10;;;3.40;99.90;;;;;;5064992;28;20459;-85
2021/12/15 05:47:18;;;;;;;0.30;0.10;;;3.50;99.90;;;;;;5070813;28;20479;-87
2021/12/15 05:49:45;;;;;;;0.30;0.10;;;3.40;99.90;;;;;;5070181;28;21106;-86
2021/12/15 05:52:13;;;;;;;0.30;0.10;;;3.40;99.90;;;;;;5068764;28;20483;-88
2021/12/15 05:54:41;;;;;;;0.30;0.10;;;3.40;99.90;;;;;;5067232;28;20441;-87
2021/12/15 05:57:08;;;;;;;0.30;0.20;;;3.40;99.90;;;;;;5063373;28;20541;-87
2021/12/15 05:59:38;;;;;;;0.40;0.20;;;3.40;99.90;;;;;;5070009;28;20496;-86
2021/12/15 06:02:05;;;;;;;0.30;0.10;;;3.40;99.90;;;;;;5066522;28;20482;-87
2021/12/15 06:04:32;;;;;;;0.30;0.10;;;3.40;99.90;;;;;;5061869;28;20491;-86
2021/12/15 06:07:00;;;;;;;0.30;0.10;;;3.40;99.90;;;;;;5067294;28;20487;-86
2021/12/15 06:09:28;;;;;;;0.30;0.10;;;3.40;99.90;;;;;;5075845;28;20462;-86
2021/12/15 06:11:55;;;;;;;0.30;0.20;;;3.40;99.90;;;;;;5066048;28;20530;-86
2021/12/15 06:14:26;;;;;;;0.30;0.10;;;3.40;99.90;;;;;;5065305;28;20841;-86
2021/12/15 06:16:58;;;;;;;0.30;0.10;;;3.40;99.90;;;;;;5064295;28;20457;-85
2021/12/15 06:19:26;;;;;;;0.30;0.10;;;3.50;99.90;;;;;;5068458;28;20537;-87
2021/12/15 06:21:53;;;;;;;0.30;0.10;;;3.50;99.90;;;;;;5054885;28;20464;-87
2021/12/15 06:24:20;;;;;;;0.30;0.10;;;3.50;99.90;;;;;;5062383;28;20477;-87
2021/12/15 06:26:47;;;;;;;0.30;0.20;;;3.50;99.90;;;;;;5068416;28;20499;-87
2021/12/15 06:29:14;;;;;;;0.30;0.30;;;3.50;99.90;;;;;;5063798;28;20490;-86
2021/12/15 06:31:41;;;;;;;0.53;0.53;;;3.50;99.90;;;;;;5066661;28;20483;-86
2021/12/15 06:34:10;;;;;;;0.67;0.60;;;3.50;99.90;;;;;;5067111;28;20599;-84
2021/12/15 06:36:37;;;;;;;0.30;0.10;;;3.50;99.90;;;;;;5064809;28;20478;-85
2021/12/15 06:39:06;;;;;;;0.30;0.10;;;3.50;99.90;;;;;;5067563;28;20447;-86
2021/12/15 06:41:34;;;;;;;0.30;0.10;;;3.50;99.90;;;;;;5067744;28;20463;-89
2021/12/15 06:44:01;;;;;;;0.30;0.10;;;3.50;99.90;;;;;;5067424;28;20478;-89
2021/12/15 06:47:00;;;;;;;0.30;0.10;;;3.40;99.90;;;;;;5068179;28;20486;-87
2021/12/15 07:00:37;;;;;;;0.30;0.10;;;3.50;99.90;;;;;;5036994;28;20483;-89
2021/12/15 07:03:05;;;;;;;0.30;0.20;;;3.50;99.90;;;;;;5069309;28;20563;-86
2021/12/15 07:05:35;;;;;;;0.30;0.10;;;3.40;99.90;;;;;;5085353;28;20501;-89
2021/12/15 07:08:03;;;;;;;0.30;0.10;;;3.50;99.90;;;;;;5071508;28;20536;-88
2021/12/15 07:10:34;;;;;;;0.60;0.60;;;3.50;99.90;;;;;;5070472;28;20443;-85
2021/12/15 07:13:01;;;;;;;0.30;0.10;;;3.70;99.90;;;;;;5069093;28;21079;-87
2021/12/15 07:15:30;;;;;;;0.40;0.20;;;3.70;99.90;;;;;;5069034;28;21092;-88
2021/12/15 07:18:03;;;;;;;0.30;0.10;;;3.60;99.90;;;;;;5067113;28;20478;-88
2021/12/15 07:20:36;;;;;;;0.30;0.10;;;3.70;99.90;;;;;;5065636;28;20487;-87
2021/12/15 07:23:07;;;;;;;0.30;0.10;;;3.70;99.90;;;;;;5054539;28;20463;-88
2021/12/15 07:25:35;;;;;;;0.40;0.37;;;3.70;99.90;;;;;;5049778;28;20478;-86
2021/12/15 07:28:02;;;;;;;0.30;0.10;;;3.70;99.90;;;;;;5067748;28;20584;-88
2021/12/15 07:30:29;;;;;;;0.30;0.20;;;3.70;99.90;;;;;;5067596;28;20532;-87
2021/12/15 07:32:56;;;;;;;0.30;0.10;;;3.70;99.90;;;;;;5065063;28;20465;-87
2021/12/15 07:35:25;;;;;;;0.30;0.10;;;3.70;99.90;;;;;;5065959;28;21432;-88
2021/12/15 07:37:52;;;;;;;0.30;0.10;;;3.60;99.90;;;;;;5063368;28;20773;-86
2021/12/15 07:40:22;;;;;;;0.30;0.20;;;3.70;99.90;;;;;;5067915;28;20456;-87
2021/12/15 07:43:05;;;;;;;0.30;0.10;;;3.70;99.90;;;;;;5068527;28;20780;-87
2021/12/15 07:45:35;;;;;;;0.30;0.20;;;3.70;99.90;;;;;;5069656;28;20521;-88
2021/12/15 07:48:04;;;;;;;0.30;0.10;;;3.80;99.90;;;;;;5067740;28;20483;-87
2021/12/15 07:50:33;;;;;;;0.30;0.10;;;3.80;99.90;;;;;;5064127;28;20472;-87
2021/12/15 07:53:01;;;;;;;0.30;0.20;;;3.70;99.90;;;;;;5069193;28;20521;-87
2021/12/15 07:55:30;;;;;;;0.40;0.20;;;3.70;99.90;;;;;;5071244;28;20825;-88
2021/12/15 07:57:57;;;;;;;0.30;0.10;;;3.70;99.90;;;;;;5071532;28;20451;-88
2021/12/15 08:00:25;;;;;;;0.30;0.10;;;3.80;99.90;;;;;;5075978;28;20454;-87
2021/12/15 08:02:52;;;;;;;0.30;0.10;;;3.80;99.90;;;;;;5080973;28;20459;-88
2021/12/15 08:05:19;;;;;;;0.30;0.10;;;3.80;99.90;;;;;;5080277;28;20493;-88
2021/12/15 08:07:46;;;;;;;0.30;0.10;;;3.80;99.90;;;;;;5072906;28;20536;-87
2021/12/15 08:10:14;;;;;;;0.30;0.20;;;3.90;99.90;;;;;;5071850;28;20472;-88
2021/12/15 08:12:45;;;;;;;0.30;0.10;;;3.90;99.90;;;;;;5073055;28;20501;-88
2021/12/15 08:15:13;;;;;;;2.20;1.60;;;4.00;99.90;;;;;;5072226;28;20992;-87
2021/12/15 08:17:42;;;;;;;0.30;0.20;;;4.00;99.90;;;;;;5072251;28;20451;-87
2021/12/15 08:20:13;;;;;;;0.30;0.20;;;3.90;99.90;;;;;;5072236;28;20756;-88
2021/12/15 08:22:40;;;;;;;0.30;0.20;;;3.90;99.90;;;;;;5073046;28;20440;-87
2021/12/15 08:25:14;;;;;;;0.30;0.13;;;4.00;99.90;;;;;;5068607;28;20464;-88
2021/12/15 08:27:44;;;;;;;0.30;0.10;;;4.10;99.90;;;;;;5070036;28;20482;-88
2021/12/15 08:30:19;;;;;;;0.30;0.20;;;4.30;99.90;;;;;;5072590;28;20507;-88
2021/12/15 08:32:46;;;;;;;1.80;1.23;;;4.30;99.90;;;;;;5068409;28;20463;-87
2021/12/15 08:35:13;;;;;;;0.60;0.60;;;4.40;99.90;;;;;;5071031;28;20460;-89
2021/12/15 08:37:40;;;;;;;0.30;0.20;;;4.30;99.90;;;;;;5071599;28;20468;-87
2021/12/15 08:40:09;;;;;;;0.30;0.20;;;4.50;99.90;;;;;;5071593;28;20513;-88
2021/12/15 08:42:38;;;;;;;0.40;0.20;;;4.40;99.90;;;;;;5071816;28;20547;-89
2021/12/15 08:45:07;;;;;;;0.30;0.20;;;4.40;99.90;;;;;;5071010;28;20542;-87
2021/12/15 08:47:35;;;;;;;0.30;0.10;;;4.50;99.90;;;;;;5071161;28;20480;-88
2021/12/15 08:50:02;;;;;;;0.30;0.10;;;4.60;99.90;;;;;;5071411;28;20978;-87
2021/12/15 08:52:29;;;;;;;0.30;0.10;;;4.70;99.90;;;;;;5072345;28;20444;-88
2021/12/15 08:54:56;;;;;;;0.30;0.20;;;4.60;99.90;;;;;;5057063;28;21157;-87
2021/12/15 08:57:23;;;;;;;0.93;0.93;;;4.60;99.90;;;;;;5078155;28;20444;-86
2021/12/15 08:59:50;;;;;;;0.30;0.10;;;4.70;99.90;;;;;;5083326;28;20444;-87
2021/12/15 09:02:19;;;;;;;0.30;0.10;;;4.70;99.90;;;;;;5077753;28;20517;-88
2021/12/15 09:04:46;;;;;;;0.30;0.20;;;4.80;99.90;;;;;;5072891;28;20447;-88
2021/12/15 09:07:14;;;;;;;0.30;0.10;;;4.80;99.90;;;;;;5072047;28;20472;-87
2021/12/15 09:09:41;;;;;;;0.30;0.10;;;4.90;99.90;;;;;;5071043;28;20460;-89
2021/12/15 09:12:10;;;;;;;0.30;0.10;;;4.80;99.90;;;;;;5070908;28;20444;-88
2021/12/15 09:14:37;;;;;;;0.30;0.20;;;4.80;99.90;;;;;;5070627;28;20557;-87
2021/12/15 09:17:05;;;;;;;0.30;0.20;;;4.80;99.90;;;;;;5071555;28;20475;-87
2021/12/15 09:19:34;;;;;;;0.40;0.40;;;4.80;99.90;;;;;;5069710;28;20466;-87
2021/12/15 09:22:02;;;;;;;0.30;0.10;;;4.80;99.90;;;;;;5072010;28;20462;-87
2021/12/15 09:24:29;;;;;;;0.30;0.10;;;5.00;99.90;;;;;;5071299;28;20508;-87
2021/12/15 09:26:56;;;;;;;0.30;0.10;;;5.10;99.90;;;;;;5058254;28;20534;-88
2021/12/15 09:29:24;;;;;;;0.40;0.40;;;5.20;99.90;;;;;;5056184;28;20553;-87
2021/12/15 09:31:53;;;;;;;0.30;0.20;;;5.30;99.90;;;;;;5067661;28;20483;-87
2021/12/15 09:34:21;;;;;;;0.47;0.47;;;5.30;99.90;;;;;;5056735;28;20451;-88
2021/12/15 09:36:52;;;;;;;0.30;0.10;;;5.20;99.90;;;;;;5065903;28;20463;-89
2021/12/15 09:39:22;;;;;;;0.30;0.20;;;5.40;99.90;;;;;;5070955;28;20471;-87
2021/12/15 09:41:50;;;;;;;0.30;0.10;;;5.30;99.90;;;;;;5069858;28;20471;-90
2021/12/15 09:44:22;;;;;;;0.30;0.10;;;5.40;99.90;;;;;;5069111;28;20470;-87
2021/12/15 10:03:50;;;;;;;0.30;0.10;;;5.40;99.90;;;;;;5070711;28;20431;-89
2021/12/15 10:06:31;;;;;;;0.50;0.30;;;5.40;99.90;;;;;;5047880;28;20893;-89
2021/12/15 10:11:55;;;;;;;0.40;0.40;;;5.50;99.90;;;;;;5069872;28;20435;-88
2021/12/15 10:17:42;;;;;;;0.47;0.20;;;5.50;99.90;;;;;;5006955;28;21225;-88
2021/12/15 10:20:16;;;;;;;1.73;0.90;;;5.50;99.90;;;;;;5056616;28;20453;-90
2021/12/15 10:22:46;;;;;;;0.30;0.20;;;5.50;99.90;;;;;;5065343;28;20496;-89
2021/12/15 10:25:17;;;;;;;0.40;0.27;;;5.60;99.90;;;;;;5068802;28;20449;-89
2021/12/15 10:27:48;;;;;;;0.30;0.10;;;5.70;99.90;;;;;;5069354;28;20867;-89
2021/12/15 10:30:22;;;;;;;2.30;1.53;;;5.70;99.90;;;;;;5069364;28;20572;-90
2021/12/15 10:32:53;;;;;;;0.30;0.10;;;5.90;99.90;;;;;;5067488;28;20801;-89
2021/12/15 10:35:23;;;;;;;1.07;1.07;;;5.80;99.90;;;;;;5068899;28;20468;-88
2021/12/15 10:38:18;;;;;;;0.30;0.10;;;5.90;99.90;;;;;;5060338;28;20841;-90
2021/12/15 10:40:53;;;;;;;0.30;0.20;;;6.00;99.90;;;;;;5070274;28;20446;-88
2021/12/15 10:43:22;;;;;;;0.40;0.30;;;5.90;99.90;;;;;;5070205;28;20435;-89
2021/12/15 10:45:54;;;;;;;0.30;0.13;;;5.80;99.90;;;;;;5069088;28;20460;-89
2021/12/15 10:48:34;;;;;;;2.93;1.90;;;5.70;99.90;;;;;;5070569;28;20479;-88
2021/12/15 10:51:04;;;;;;;0.30;0.13;;;5.80;99.90;;;;;;5071289;28;20469;-88
2021/12/15 10:53:34;;;;;;;0.87;0.87;;;5.70;99.90;;;;;;5068073;28;20464;-89
2021/12/15 10:56:10;;;;;;;0.30;0.20;;;5.60;99.90;;;;;;5076542;28;20467;-89
2021/12/15 10:58:40;;;;;;;1.40;1.30;;;5.60;99.90;;;;;;5070761;28;20810;-89
2021/12/15 11:01:39;;;;;;;0.93;0.50;;;5.80;99.90;;;;;;5069879;28;20983;-88
2021/12/15 11:04:37;;;;;;;0.30;0.20;;;5.90;99.90;;;;;;5066669;28;20466;-88
2021/12/15 11:07:12;;;;;;;1.10;0.30;;;5.80;99.90;;;;;;5038981;28;20774;-88
2021/12/15 11:09:42;;;;;;;0.30;0.20;;;5.80;99.90;;;;;;5060726;28;20532;-90
2021/12/15 11:12:15;;;;;;;1.37;0.50;;;5.80;99.90;;;;;;5068935;28;20926;-89
2021/12/15 11:14:46;;;;;;;0.30;0.20;;;5.90;99.90;;;;;;5069584;28;20537;-88
2021/12/15 11:17:16;;;;;;;0.30;0.10;;;5.80;99.90;;;;;;5069568;28;20544;-88
2021/12/15 11:19:56;;;;;;;0.37;0.17;;;5.70;99.90;;;;;;5068853;28;20926;-88
2021/12/15 11:22:44;;;;;;;1.03;0.70;;;5.80;99.90;;;;;;5059962;28;20464;-87
2021/12/15 11:25:22;;;;;;;0.30;0.10;;;5.80;99.90;;;;;;5066557;28;20532;-88
2021/12/15 11:27:54;;;;;;;0.30;0.20;;;5.90;99.90;;;;;;5068265;28;20540;-88
2021/12/15 11:30:25;;;;;;;0.30;0.20;;;6.10;99.90;;;;;;5072104;28;20566;-88
2021/12/15 11:32:55;;;;;;;0.63;0.63;;;6.10;99.90;;;;;;5072427;28;20455;-88
2021/12/15 11:35:27;;;;;;;0.30;0.10;;;6.00;99.90;;;;;;5070457;28;20491;-88
2021/12/15 11:37:58;;;;;;;0.30;0.10;;;6.10;99.90;;;;;;5052444;28;20452;-89
2021/12/15 11:40:30;;;;;;;0.30;0.20;;;6.00;99.90;;;;;;5056319;28;20451;-87
2021/12/15 11:43:00;;;;;;;0.30;0.10;;;6.10;99.90;;;;;;5072221;28;20520;-87
2021/12/15 11:45:27;;;;;;;0.30;0.10;;;6.20;99.90;;;;;;5057501;28;20933;-88
2021/12/15 11:48:18;;;;;;;1.17;0.53;;;6.10;99.90;;;;;;5073563;28;20987;-88
2021/12/15 11:50:46;;;;;;;0.33;0.20;;;6.00;99.90;;;;;;5082914;28;20479;-87
2021/12/15 11:53:22;;;;;;;0.30;0.10;;;6.00;99.90;;;;;;5074032;28;21198;-87
2021/12/15 11:55:50;;;;;;;0.70;0.50;;;6.00;99.90;;;;;;5073305;28;20463;-88
2021/12/15 11:58:30;;;;;;;0.37;0.23;;;6.10;99.90;;;;;;5072767;28;20922;-88
2021/12/15 12:00:58;;;;;;;0.30;0.20;;;6.00;99.90;;;;;;5073097;28;20431;-89
2021/12/15 12:03:25;;;;;;;0.30;0.10;;;6.00;99.90;;;;;;5072303;28;20465;-89
2021/12/15 12:05:52;;;;;;;0.30;0.20;;;5.90;99.90;;;;;;5069239;28;20445;-89
2021/12/15 12:08:19;;;;;;;0.87;0.87;;;5.80;99.90;;;;;;5052670;28;20543;-88
2021/12/15 12:10:49;;;;;;;0.30;0.10;;;5.80;99.90;;;;;;5072368;28;20499;-87
2021/12/15 12:13:26;;;;;;;0.30;0.10;;;5.90;99.90;;;;;;5072008;28;20483;-87
2021/12/15 12:15:56;;;;;;;1.50;0.73;;;6.00;99.90;;;;;;5072307;28;20494;-89
2021/12/15 12:18:25;;;;;;;0.30;0.10;;;6.00;99.90;;;;;;5069858;28;20538;-89
2021/12/15 12:20:55;;;;;;;0.57;0.50;;;6.00;99.90;;;;;;5068275;28;20460;-89
2021/12/15 12:23:25;;;;;;;0.30;0.13;;;6.00;99.90;;;;;;5070516;28;20914;-88
2021/12/15 12:25:54;;;;;;;0.30;0.20;;;6.00;99.90;;;;;;5068576;28;20470;-87
2021/12/15 12:28:25;;;;;;;0.30;0.10;;;6.10;99.90;;;;;;5070295;28;20487;-86
2021/12/15 12:30:56;;;;;;;0.40;0.40;;;6.00;99.90;;;;;;5061784;28;20477;-86
2021/12/15 12:33:25;;;;;;;0.40;0.23;;;6.00;99.90;;;;;;5067245;28;20449;-86
2021/12/15 12:35:55;;;;;;;0.30;0.20;;;6.00;99.90;;;;;;5067493;28;20469;-85
2021/12/15 12:38:25;;;;;;;0.30;0.10;;;5.90;99.90;;;;;;5054017;28;20521;-86
2021/12/15 12:40:55;;;;;;;0.30;0.10;;;5.80;99.90;;;;;;5070962;28;20444;-85
2021/12/15 12:43:26;;;;;;;0.40;0.30;;;5.90;99.90;;;;;;5072591;28;20452;-86
2021/12/15 12:46:07;;;;;;;0.30;0.20;;;6.10;99.90;;;;;;5080636;28;20444;-87
2021/12/15 12:48:50;;;;;;;0.30;0.20;;;6.00;99.90;;;;;;5080956;28;20558;-85
2021/12/15 13:00:06;;;;;;;0.30;0.20;;;6.10;99.90;;;;;;5070017;28;21055;-86
2021/12/15 13:02:44;;;;;;;1.67;1.67;;;6.10;99.90;;;;;;5069940;28;20455;-87
2021/12/15 13:05:28;;;;;;;0.30;0.10;;;6.20;99.90;;;;;;5070692;28;20467;-85
2021/12/15 13:07:58;;;;;;;0.30;0.17;;;6.10;99.90;;;;;;5059896;28;20459;-88
2021/12/15 13:10:51;;;;;;;0.30;0.13;;;6.00;99.90;;;;;;5071132;28;20799;-86
2021/12/15 13:13:20;;;;;;;0.40;0.30;;;6.00;99.90;;;;;;5071371;28;20911;-87
2021/12/15 13:15:55;;;;;;;0.30;0.10;;;6.00;99.90;;;;;;5070629;28;20493;-87
2021/12/15 13:18:24;;;;;;;0.40;0.30;;;6.00;99.90;;;;;;5071648;28;20450;-87
2021/12/15 13:21:00;;;;;;;0.30;0.10;;;5.90;99.90;;;;;;5070558;28;20467;-85
2021/12/15 13:23:46;;;;;;;3.17;0.50;;;5.80;99.90;;;;;;5070680;28;20473;-86
2021/12/15 13:29:23;;;;;;;0.30;0.10;;;5.80;99.90;;;;;;5057241;28;20919;-86
2021/12/15 13:32:02;;;;;;;0.30;0.20;;;5.80;99.90;;;;;;5069844;28;21050;-85
2021/12/15 13:34:38;;;;;;;0.30;0.10;;;5.80;99.90;;;;;;5070227;28;20446;-86
2021/12/15 13:37:06;;;;;;;0.40;0.30;;;6.00;99.90;;;;;;5061856;28;20460;-85
2021/12/15 13:39:44;;;;;;;0.30;0.20;;;6.00;99.90;;;;;;5069568;28;20440;-85
2021/12/15 13:42:14;;;;;;;1.07;0.70;;;6.00;99.90;;;;;;5075863;28;20456;-86
2021/12/15 13:44:44;;;;;;;0.30;0.20;;;5.90;99.90;;;;;;5078621;28;20445;-86
2021/12/15 13:47:20;;;;;;;0.40;0.20;;;5.90;99.90;;;;;;5056082;28;20433;-86
2021/12/15 13:49:49;;;;;;;0.30;0.20;;;6.00;99.90;;;;;;5065724;28;20497;-86
2021/12/15 13:52:28;;;;;;;0.30;0.20;;;5.90;99.90;;;;;;5063165;28;20428;-86
2021/12/15 13:55:14;;;;;;;0.30;0.10;;;5.90;99.90;;;;;;5070386;28;20448;-86
2021/12/15 13:57:57;;;;;;;0.30;0.10;;;5.80;99.90;;;;;;5061532;28;20467;-86
2021/12/15 14:00:29;;;;;;;1.43;1.33;;;5.80;99.90;;;;;;5067184;28;20458;-86
2021/12/15 14:03:03;;;;;;;0.30;0.10;;;5.70;99.90;;;;;;5054727;28;20449;-87
2021/12/15 14:05:33;;;;;;;0.30;0.10;;;5.70;99.90;;;;;;5068229;28;20864;-86
2021/12/15 14:08:04;;;;;;;0.30;0.20;;;5.70;99.90;;;;;;5050049;28;20456;-88
2021/12/15 14:10:45;;;;;;;0.30;0.10;;;5.60;99.90;;;;;;5067910;28;20495;-87
2021/12/15 14:13:12;;;;;;;0.30;0.10;;;5.60;99.90;;;;;;5070035;28;20440;-89
2021/12/15 14:15:52;;;;;;;0.83;0.83;;;5.60;99.90;;;;;;5069575;28;20460;-86
2021/12/15 14:18:23;;;;;;;0.30;0.20;;;5.70;99.90;;;;;;5063459;28;20503;-88
2021/12/15 14:20:53;;;;;;;0.30;0.20;;;5.60;99.90;;;;;;5066426;28;20464;-87